createdAt,value
2023-05-12T00:01:29.982Z,76.40
2023-05-12T00:03:58.427Z,76.12
2023-05-12T00:06:27.129Z,76.78
2023-05-12T00:08:55.309Z,77.10
2023-05-12T00:11:25.387Z,77.04
2023-05-12T00:13:53.825Z,76.95
2023-05-12T00:16:22.120Z,77.51
2023-05-12T00:18:50.447Z,80.13
2023-05-12T00:21:18.869Z,80.95
2023-05-12T00:23:47.438Z,81.47
2023-05-12T00:26:16.256Z,78.65
2023-05-12T00:28:47.687Z,81.02
2023-05-12T00:31:16.337Z,81.85
2023-05-12T00:33:44.722Z,81.58
2023-05-12T00:36:13.354Z,81.60
2023-05-12T00:38:41.485Z,82.35
2023-05-12T00:41:10.297Z,81.89
2023-05-12T00:43:38.536Z,80.26
2023-05-12T00:46:09.845Z,79.27
2023-05-12T00:48:38.747Z,79.92
2023-05-12T00:51:07.935Z,78.99
2023-05-12T00:53:48.156Z,78.97
2023-05-12T00:56:19.844Z,79.54
2023-05-12T00:58:48.519Z,79.18
2023-05-12T01:01:19.386Z,79.84
2023-05-12T01:03:51.613Z,79.42
2023-05-12T01:06:29.005Z,78.60
2023-05-12T01:09:00.746Z,78.78
2023-05-12T01:11:28.730Z,79.61
2023-05-12T01:13:57.044Z,79.93
2023-05-12T01:16:32.017Z,79.56
2023-05-12T01:19:03.955Z,80.20
2023-05-12T01:21:32.718Z,80.32
2023-05-12T01:24:04.088Z,80.12
2023-05-12T01:26:33.923Z,80.45
2023-05-12T01:29:06.299Z,81.65
2023-05-12T01:31:36.192Z,82.77
2023-05-12T01:34:04.579Z,82.74
2023-05-12T01:36:32.758Z,82.95
2023-05-12T01:39:00.827Z,83.13
2023-05-12T01:41:29.410Z,82.18
2023-05-12T01:43:59.008Z,82.29
2023-05-12T01:46:27.853Z,82.38
2023-05-12T01:48:59.814Z,82.63
2023-05-12T01:51:28.745Z,81.98
2023-05-12T01:53:58.625Z,81.63
2023-05-12T01:56:30.264Z,81.62
2023-05-12T01:58:59.905Z,80.05
2023-05-12T02:01:29.230Z,79.91
2023-05-12T02:03:59.193Z,76.99
2023-05-12T02:06:28.648Z,76.52
2023-05-12T02:08:58.241Z,73.92
2023-05-12T02:11:26.678Z,74.37
2023-05-12T02:13:55.216Z,73.04
2023-05-12T02:16:25.001Z,74.06
2023-05-12T02:18:53.597Z,74.18
2023-05-12T02:21:21.675Z,74.34
2023-05-12T02:23:52.188Z,74.65
2023-05-12T02:26:21.398Z,75.72
2023-05-12T02:28:49.913Z,77.71
2023-05-12T02:31:18.191Z,76.49
2023-05-12T02:33:47.755Z,78.36
2023-05-12T02:36:16.146Z,77.88
2023-05-12T02:38:44.767Z,74.83
2023-05-12T02:41:13.263Z,74.79
2023-05-12T02:43:41.427Z,73.10
2023-05-12T02:46:09.421Z,73.15
2023-05-12T02:48:40.173Z,73.12
2023-05-12T02:51:10.027Z,73.98
2023-05-12T02:53:38.308Z,74.27
2023-05-12T02:56:07.780Z,75.44
2023-05-12T02:58:36.671Z,74.30
2023-05-12T03:01:10.930Z,75.88
2023-05-12T03:03:40.934Z,78.12
2023-05-12T03:06:11.333Z,75.42
2023-05-12T03:08:39.328Z,76.41
2023-05-12T03:11:07.490Z,76.81
2023-05-12T03:13:36.060Z,77.24
2023-05-12T03:16:05.215Z,76.19
2023-05-12T03:18:33.635Z,78.81
2023-05-12T03:21:02.180Z,78.46
2023-05-12T03:23:31.995Z,78.24
2023-05-12T03:26:00.267Z,79.32
2023-05-12T03:28:29.637Z,78.15
2023-05-12T03:30:57.738Z,79.57
2023-05-12T03:33:26.446Z,79.54
2023-05-12T03:35:54.927Z,78.61
2023-05-12T03:38:24.850Z,76.93
2023-05-12T03:41:04.800Z,76.70
2023-05-12T03:43:33.502Z,76.56
2023-05-12T03:46:02.242Z,76.59
2023-05-12T03:48:32.963Z,75.94
2023-05-12T03:51:01.646Z,76.15
2023-05-12T03:53:29.928Z,76.07
2023-05-12T03:56:05.726Z,76.86
2023-05-12T03:58:34.464Z,76.73
2023-05-12T04:01:02.850Z,78.08
2023-05-12T04:03:31.509Z,78.73
2023-05-12T04:06:01.241Z,79.78
2023-05-12T04:08:29.959Z,79.79
2023-05-12T04:11:01.220Z,79.68
2023-05-12T04:13:31.277Z,79.56
2023-05-12T04:16:00.427Z,78.55
2023-05-12T04:18:29.628Z,78.59
2023-05-12T04:20:58.141Z,78.13
2023-05-12T04:23:26.964Z,78.81
2023-05-12T04:25:56.861Z,74.31
2023-05-12T04:28:26.496Z,74.36
2023-05-12T04:30:54.532Z,75.69
2023-05-12T04:33:24.949Z,76.53
2023-05-12T04:35:57.180Z,75.83
2023-05-12T04:38:25.786Z,76.03
2023-05-12T04:40:59.267Z,73.01
2023-05-12T04:46:01.763Z,70.75
2023-05-12T04:48:30.384Z,70.78
2023-05-12T04:51:02.778Z,70.19
2023-05-12T04:53:34.707Z,71.62
2023-05-12T04:56:04.087Z,72.70
2023-05-12T04:58:38.733Z,69.78
2023-05-12T05:01:07.844Z,71.16
2023-05-12T05:03:36.314Z,70.55
2023-05-12T05:06:05.681Z,71.66
2023-05-12T05:08:34.341Z,73.43
2023-05-12T05:11:02.872Z,72.96
2023-05-12T05:13:32.735Z,72.92
2023-05-12T05:16:02.935Z,71.51
2023-05-12T05:18:32.433Z,69.22
2023-05-12T05:21:01.190Z,67.86
2023-05-12T05:23:29.901Z,67.85
2023-05-12T05:25:58.189Z,66.28
2023-05-12T05:28:26.837Z,68.12
2023-05-12T05:30:55.679Z,67.16
2023-05-12T05:33:26.355Z,65.56
2023-05-12T05:35:54.790Z,67.68
2023-05-12T05:38:23.440Z,67.69
2023-05-12T05:40:54.184Z,66.32
2023-05-12T05:43:24.390Z,64.65
2023-05-12T05:45:53.403Z,64.17
2023-05-12T05:48:23.574Z,64.65
2023-05-12T05:50:54.105Z,64.68
2023-05-12T05:53:25.176Z,64.25
2023-05-12T05:55:54.200Z,63.84
2023-05-12T05:58:22.616Z,64.58
2023-05-12T06:00:51.272Z,64.74
2023-05-12T06:03:19.965Z,64.61
2023-05-12T06:05:49.475Z,63.63
2023-05-12T06:08:18.943Z,64.23
2023-05-12T06:10:47.411Z,63.09
2023-05-12T06:13:15.911Z,63.44
2023-05-12T06:15:43.941Z,64.50
2023-05-12T06:18:13.630Z,62.61
2023-05-12T06:20:42.872Z,61.88
2023-05-12T06:23:11.339Z,59.89
2023-05-12T06:25:42.036Z,60.75
2023-05-12T06:28:10.168Z,59.41
2023-05-12T06:30:38.709Z,58.04
2023-05-12T06:33:06.913Z,59.64
2023-05-12T06:35:35.572Z,57.67
2023-05-12T06:38:07.634Z,55.98
2023-05-12T06:40:36.117Z,55.35
2023-05-12T06:43:05.925Z,55.30
2023-05-12T06:45:38.224Z,56.69
2023-05-12T06:48:09.528Z,53.31
2023-05-12T06:50:37.978Z,52.82
2023-05-12T06:53:06.686Z,46.44
2023-05-12T06:55:34.866Z,43.06
2023-05-12T06:58:04.538Z,48.13
2023-05-12T07:00:34.333Z,49.03
2023-05-12T07:03:05.065Z,49.46
2023-05-12T07:05:33.203Z,46.54
2023-05-12T07:08:01.376Z,45.79
2023-05-12T07:10:29.786Z,42.94
2023-05-12T07:12:58.369Z,42.59
2023-05-12T07:15:29.232Z,40.44
2023-05-12T07:18:00.440Z,38.52
2023-05-12T07:20:28.725Z,39.75
2023-05-12T07:22:57.033Z,40.79
2023-05-12T07:25:25.780Z,40.87
2023-05-12T07:27:54.238Z,37.68
2023-05-12T07:30:23.194Z,41.68
2023-05-12T07:32:51.512Z,43.47
2023-05-12T07:35:22.451Z,43.27
2023-05-12T07:37:51.214Z,45.49
2023-05-12T07:40:20.054Z,45.83
2023-05-12T07:42:48.302Z,44.04
2023-05-12T07:45:23.004Z,41.47
2023-05-12T07:47:52.513Z,38.66
2023-05-12T07:50:22.822Z,39.55
2023-05-12T07:52:53.255Z,41.14
2023-05-12T07:55:23.273Z,45.58
2023-05-12T07:57:51.903Z,46.50
2023-05-12T08:00:20.842Z,44.08
2023-05-12T08:02:49.324Z,46.49
2023-05-12T08:05:17.852Z,43.49
2023-05-12T08:07:47.676Z,42.37
2023-05-12T08:10:16.042Z,40.37
2023-05-12T08:12:44.256Z,42.92
2023-05-12T08:15:12.581Z,41.39
2023-05-12T08:17:42.072Z,40.62
2023-05-12T08:20:11.380Z,39.71
2023-05-12T08:22:40.278Z,39.73
2023-05-12T08:25:12.711Z,36.94
2023-05-12T08:27:41.744Z,37.26
2023-05-12T08:30:11.188Z,37.25
2023-05-12T08:32:39.974Z,38.62
2023-05-12T08:35:08.747Z,40.18
2023-05-12T08:37:37.155Z,40.45
2023-05-12T08:40:22.697Z,39.01
2023-05-12T08:43:03.702Z,38.05
2023-05-12T08:45:31.796Z,40.64
2023-05-12T08:48:01.070Z,42.58
2023-05-12T08:50:32.105Z,41.47
2023-05-12T08:53:01.105Z,40.62
2023-05-12T08:55:33.676Z,38.19
2023-05-12T08:58:04.426Z,42.73
2023-05-12T09:00:34.559Z,42.83
2023-05-12T09:03:07.363Z,43.69
2023-05-12T09:05:36.759Z,45.31
2023-05-12T09:08:06.437Z,45.75
2023-05-12T09:10:37.121Z,45.23
2023-05-12T09:13:12.739Z,38.76
2023-05-12T09:15:46.908Z,41.18
2023-05-12T09:18:15.207Z,44.45
2023-05-12T09:20:44.244Z,42.64
2023-05-12T09:23:20.007Z,45.12
2023-05-12T09:26:00.963Z,42.29
2023-05-12T09:28:37.020Z,42.92
2023-05-12T09:31:17.833Z,41.03
2023-05-12T09:33:46.515Z,44.79
2023-05-12T09:36:19.604Z,44.33
2023-05-12T09:38:48.368Z,40.71
2023-05-12T09:41:24.186Z,42.19
2023-05-12T09:43:54.648Z,40.48
2023-05-12T09:46:23.088Z,37.28
2023-05-12T09:48:52.100Z,37.60
2023-05-12T09:51:20.528Z,30.42
2023-05-12T09:53:49.076Z,28.94
2023-05-12T09:56:19.724Z,28.93
2023-05-12T09:58:49.772Z,29.78
2023-05-12T10:01:23.896Z,32.50
2023-05-12T10:03:54.963Z,32.10
2023-05-12T10:06:28.374Z,29.84
2023-05-12T10:09:17.487Z,32.34
2023-05-12T10:11:49.220Z,28.47
2023-05-12T10:14:19.520Z,28.29
2023-05-12T10:16:48.403Z,33.29
2023-05-12T10:19:17.088Z,35.99
2023-05-12T10:21:46.335Z,40.42
2023-05-12T10:24:16.350Z,41.20
2023-05-12T10:26:46.778Z,42.33
2023-05-12T10:29:15.785Z,43.61
2023-05-12T10:31:47.151Z,40.14
2023-05-12T10:34:18.671Z,40.59
2023-05-12T10:36:51.192Z,40.46
2023-05-12T10:39:20.132Z,41.94
2023-05-12T10:41:51.138Z,41.85
2023-05-12T10:44:28.744Z,40.48
2023-05-12T10:47:00.703Z,41.26
2023-05-12T10:49:37.621Z,40.94
2023-05-12T10:52:07.512Z,41.43
2023-05-12T10:54:40.993Z,43.07
2023-05-12T10:57:18.239Z,41.84
2023-05-12T10:59:51.998Z,39.79
2023-05-12T11:02:26.550Z,38.06
2023-05-12T11:05:00.779Z,40.77
2023-05-12T11:07:32.960Z,36.18
2023-05-12T11:10:04.730Z,35.29
2023-05-12T11:12:37.418Z,37.90
2023-05-12T11:15:10.225Z,39.93
2023-05-12T11:17:41.301Z,42.50
2023-05-12T11:20:11.156Z,42.11
2023-05-12T11:22:44.085Z,42.50
2023-05-12T11:25:13.532Z,42.61
2023-05-12T11:27:48.448Z,43.33
2023-05-12T11:30:17.454Z,45.23
2023-05-12T11:32:46.162Z,46.78
2023-05-12T11:35:16.697Z,46.10
2023-05-12T11:37:46.679Z,46.11
2023-05-12T11:40:20.358Z,46.57
2023-05-12T11:42:54.113Z,45.01
2023-05-12T11:45:24.924Z,46.05
2023-05-12T11:47:54.799Z,42.17
2023-05-12T11:50:25.961Z,44.89
2023-05-12T11:52:54.775Z,45.83
2023-05-12T11:55:24.982Z,45.16
2023-05-12T11:58:00.039Z,43.01
2023-05-12T12:00:30.852Z,43.82
2023-05-12T12:03:15.049Z,41.32
2023-05-12T12:06:01.118Z,41.90
2023-05-12T12:08:29.918Z,42.70
2023-05-12T12:11:01.943Z,41.28
2023-05-12T12:13:33.253Z,41.14
2023-05-12T12:16:02.165Z,42.26
2023-05-12T12:18:30.491Z,41.05
2023-05-12T12:20:58.720Z,41.75
2023-05-12T12:23:27.056Z,40.70
2023-05-12T12:25:55.260Z,41.75
2023-05-12T12:28:23.453Z,42.42
2023-05-12T12:30:53.327Z,41.70
2023-05-12T12:33:22.161Z,42.33
2023-05-12T12:35:51.368Z,41.50
2023-05-12T12:38:19.654Z,39.05
2023-05-12T12:40:48.223Z,39.33
2023-05-12T12:43:17.111Z,40.59
2023-05-12T12:45:45.779Z,40.47
2023-05-12T12:48:15.691Z,41.05
2023-05-12T12:50:43.952Z,42.06
2023-05-12T12:53:13.647Z,37.31
2023-05-12T12:55:41.870Z,37.81
2023-05-12T12:58:09.783Z,31.78
2023-05-12T13:00:38.440Z,32.29
2023-05-12T13:03:32.972Z,31.58
2023-05-12T13:06:01.576Z,34.12
2023-05-12T13:08:29.613Z,32.80
2023-05-12T13:10:58.227Z,31.57
2023-05-12T13:13:26.317Z,31.04
2023-05-12T13:15:54.679Z,32.96
2023-05-12T13:18:23.005Z,35.84
2023-05-12T13:20:54.337Z,33.60
2023-05-12T13:23:22.585Z,35.48
2023-05-12T13:25:52.551Z,34.09
2023-05-12T13:28:20.574Z,34.08
2023-05-12T13:30:48.884Z,33.31
2023-05-12T13:33:17.272Z,30.67
2023-05-12T13:35:46.001Z,33.07
2023-05-12T13:38:15.528Z,32.80
2023-05-12T13:40:43.838Z,34.32
2023-05-12T13:43:12.613Z,34.21
2023-05-12T13:45:40.658Z,31.54
2023-05-12T13:48:11.221Z,32.09
2023-05-12T13:50:39.496Z,33.29
2023-05-12T13:53:07.815Z,30.50
2023-05-12T13:55:40.828Z,32.34
2023-05-12T13:58:09.026Z,34.09
2023-05-12T14:00:37.480Z,32.39
2023-05-12T14:03:06.110Z,33.62
2023-05-12T14:05:34.394Z,34.36
2023-05-12T14:08:02.753Z,33.19
2023-05-12T14:10:32.536Z,33.90
2023-05-12T14:13:02.334Z,35.44
2023-05-12T14:15:44.784Z,35.74
2023-05-12T14:18:16.940Z,36.00
2023-05-12T14:20:45.619Z,37.22
2023-05-12T14:23:14.155Z,36.81
2023-05-12T14:25:42.228Z,37.25
2023-05-12T14:28:12.535Z,37.75
2023-05-12T14:30:41.217Z,37.62
2023-05-12T14:33:09.529Z,37.07
2023-05-12T14:35:38.048Z,36.96
2023-05-12T14:38:06.729Z,36.81
2023-05-12T14:40:34.945Z,35.98
2023-05-12T14:43:03.610Z,37.81
2023-05-12T14:45:33.183Z,37.56
2023-05-12T14:48:01.502Z,38.27
2023-05-12T14:50:30.050Z,37.52
2023-05-12T14:52:58.142Z,38.08
2023-05-12T14:55:26.726Z,38.01
2023-05-12T14:57:55.066Z,38.18
2023-05-12T15:00:23.937Z,37.17
2023-05-12T15:02:56.365Z,37.46
2023-05-12T15:05:36.098Z,39.04
2023-05-12T15:08:14.118Z,37.29
2023-05-12T15:10:42.522Z,37.99
2023-05-12T15:13:11.432Z,38.44
2023-05-12T15:15:40.927Z,38.33
2023-05-12T15:18:10.619Z,38.07
2023-05-12T15:20:39.440Z,37.79
2023-05-12T15:23:07.884Z,40.05
2023-05-12T15:25:39.260Z,37.65
2023-05-12T15:28:07.629Z,40.83
2023-05-12T15:30:36.211Z,44.83
2023-05-12T15:33:06.211Z,43.37
2023-05-12T15:35:36.155Z,43.58
2023-05-12T15:38:05.126Z,43.77
2023-05-12T15:40:33.254Z,43.54
2023-05-12T15:43:01.332Z,46.13
2023-05-12T15:45:29.615Z,44.25
2023-05-12T15:47:59.141Z,43.44
2023-05-12T15:50:27.136Z,43.50
2023-05-12T15:52:57.174Z,44.19
2023-05-12T15:55:25.164Z,45.35
2023-05-12T15:57:53.752Z,46.22
2023-05-12T16:00:22.814Z,47.68
2023-05-12T16:02:51.544Z,48.63
2023-05-12T16:05:19.959Z,48.69
2023-05-12T16:07:49.672Z,49.04
2023-05-12T16:10:19.895Z,48.74
2023-05-12T16:12:48.740Z,48.28
2023-05-12T16:15:16.897Z,49.90
2023-05-12T16:17:45.161Z,48.58
2023-05-12T16:20:15.279Z,49.91
2023-05-12T16:22:43.613Z,49.31
2023-05-12T16:25:11.738Z,49.97
2023-05-12T16:27:41.829Z,49.83
2023-05-12T16:30:13.379Z,49.55
2023-05-12T16:32:41.768Z,49.20
2023-05-12T16:35:11.220Z,50.04
2023-05-12T16:37:40.240Z,50.42
2023-05-12T16:40:09.774Z,50.82
2023-05-12T16:42:38.315Z,50.84
2023-05-12T16:45:11.094Z,51.71
2023-05-12T16:47:40.598Z,51.08
2023-05-12T16:50:10.533Z,49.79
2023-05-12T16:52:38.857Z,49.67
2023-05-12T16:55:08.239Z,49.70
2023-05-12T16:57:37.007Z,50.39
2023-05-12T17:00:09.627Z,49.38
2023-05-12T17:02:39.018Z,52.52
2023-05-12T17:05:08.252Z,51.21
2023-05-12T17:07:36.422Z,49.82
2023-05-12T17:10:05.243Z,49.93
2023-05-12T17:12:33.587Z,48.05
2023-05-12T17:15:07.645Z,47.50
2023-05-12T17:17:38.354Z,48.15
2023-05-12T17:20:07.926Z,49.93
2023-05-12T17:22:41.466Z,49.13
2023-05-12T17:25:10.409Z,49.55
2023-05-12T17:27:38.535Z,48.96
2023-05-12T17:30:08.714Z,49.46
2023-05-12T17:32:38.342Z,53.21
2023-05-12T17:35:08.431Z,52.61
2023-05-12T17:37:37.222Z,48.44
2023-05-12T17:40:07.233Z,48.61
2023-05-12T17:42:35.699Z,50.02
2023-05-12T17:45:05.566Z,51.53
2023-05-12T17:47:34.663Z,50.93
2023-05-12T17:50:04.999Z,51.75
2023-05-12T17:52:33.509Z,52.75
2023-05-12T17:55:01.695Z,52.04
2023-05-12T17:57:30.040Z,51.40
2023-05-12T17:59:58.475Z,52.43
2023-05-12T18:02:27.149Z,54.38
2023-05-12T18:04:56.340Z,53.63
2023-05-12T18:07:26.598Z,53.79
2023-05-12T18:09:55.062Z,54.74
2023-05-12T18:12:23.448Z,56.96
2023-05-12T18:14:51.750Z,56.46
2023-05-12T18:17:21.585Z,56.39
2023-05-12T18:19:49.775Z,56.40
2023-05-12T18:22:18.420Z,57.28
2023-05-12T18:24:48.059Z,58.25
2023-05-12T18:27:16.395Z,57.31
2023-05-12T18:29:44.637Z,58.25
2023-05-12T18:32:12.998Z,58.39
2023-05-12T18:34:44.111Z,59.03
2023-05-12T18:37:15.651Z,59.80
2023-05-12T18:39:44.577Z,60.50
2023-05-12T18:42:13.943Z,65.46
2023-05-12T18:44:42.802Z,66.37
2023-05-12T18:47:11.386Z,66.00
2023-05-12T18:49:39.537Z,65.36
2023-05-12T18:52:11.061Z,65.84
2023-05-12T18:54:41.283Z,65.39
2023-05-12T18:57:10.195Z,65.19
2023-05-12T18:59:39.627Z,64.20
2023-05-12T19:02:09.243Z,64.14
2023-05-12T19:04:39.108Z,64.52
2023-05-12T19:07:09.958Z,65.18
2023-05-12T19:09:38.515Z,67.91
2023-05-12T19:12:10.877Z,68.16
2023-05-12T19:14:43.194Z,68.93
2023-05-12T19:17:11.732Z,68.25
2023-05-12T19:19:39.930Z,68.98
2023-05-12T19:22:07.977Z,68.92
2023-05-12T19:24:38.090Z,71.22
2023-05-12T19:27:06.828Z,74.59
2023-05-12T19:29:35.149Z,75.20
2023-05-12T19:32:05.403Z,75.89
2023-05-12T19:34:33.650Z,76.21
2023-05-12T19:37:04.707Z,77.49
2023-05-12T19:44:04.429Z,78.35
2023-05-12T19:46:34.823Z,78.12
2023-05-12T19:49:06.292Z,78.08
2023-05-12T19:51:34.340Z,78.34
2023-05-12T19:54:05.250Z,77.82
2023-05-12T19:56:33.997Z,78.01
2023-05-12T19:59:02.161Z,78.47
2023-05-12T20:01:30.989Z,78.60
2023-05-12T20:03:59.345Z,78.63
2023-05-12T20:06:29.016Z,78.25
2023-05-12T20:08:57.444Z,77.85
2023-05-12T20:11:25.860Z,78.81
2023-05-12T20:13:54.089Z,77.19
2023-05-12T20:16:22.317Z,76.47
2023-05-12T20:18:50.755Z,75.93
2023-05-12T20:21:19.826Z,76.35
2023-05-12T20:23:49.251Z,76.81
2023-05-12T20:26:17.443Z,75.04
2023-05-12T20:28:45.901Z,74.61
2023-05-12T20:31:14.171Z,74.59
2023-05-12T20:33:42.930Z,75.34
2023-05-12T20:36:11.220Z,75.91
2023-05-12T20:38:39.895Z,75.65
2023-05-12T20:41:10.315Z,76.37
2023-05-12T20:43:38.754Z,74.83
2023-05-12T20:46:07.383Z,77.76
2023-05-12T20:48:35.651Z,80.81
2023-05-12T20:51:11.684Z,81.78
2023-05-12T20:53:40.081Z,81.70
2023-05-12T20:56:10.663Z,81.63
2023-05-12T20:58:39.103Z,82.13
2023-05-12T21:01:07.699Z,82.11
2023-05-12T21:03:36.046Z,81.16
2023-05-12T21:06:06.221Z,80.98
2023-05-12T21:08:34.503Z,81.66
2023-05-12T21:11:03.084Z,82.19
2023-05-12T21:13:32.747Z,82.23
2023-05-12T21:16:00.752Z,81.86
2023-05-12T21:18:29.373Z,82.83
2023-05-12T21:20:57.527Z,83.05
2023-05-12T21:23:26.066Z,83.19
2023-05-12T21:25:54.207Z,83.48
2023-05-12T21:28:22.508Z,83.15
2023-05-12T21:30:52.708Z,82.93
2023-05-12T21:33:20.922Z,83.25
2023-05-12T21:35:50.188Z,82.21
2023-05-12T21:38:18.570Z,82.25
2023-05-12T21:40:50.777Z,81.67
2023-05-12T21:43:19.250Z,81.47
2023-05-12T21:45:47.323Z,79.23
2023-05-12T21:48:17.695Z,78.61
2023-05-12T21:50:46.375Z,76.99
2023-05-12T21:53:14.555Z,77.03
2023-05-12T21:55:43.023Z,76.66
2023-05-12T21:58:11.565Z,76.64
2023-05-12T22:00:39.617Z,77.19
2023-05-12T22:03:08.721Z,76.38
2023-05-12T22:05:38.869Z,76.64
2023-05-12T22:08:07.175Z,76.48
2023-05-12T22:10:35.543Z,76.27
2023-05-12T22:13:03.730Z,76.64
2023-05-12T22:15:32.213Z,76.96
2023-05-12T22:18:00.883Z,76.65
2023-05-12T22:20:29.070Z,76.97
2023-05-12T22:22:59.444Z,76.64
2023-05-12T22:25:27.836Z,77.37
2023-05-12T22:27:56.041Z,76.94
2023-05-12T22:30:24.432Z,77.15
2023-05-12T22:32:52.815Z,77.32
2023-05-12T22:35:21.364Z,75.90
2023-05-12T22:37:50.830Z,75.21
2023-05-12T22:40:22.233Z,75.31
2023-05-12T22:42:50.304Z,76.20
2023-05-12T22:45:18.366Z,76.38
2023-05-12T22:47:46.752Z,75.61
2023-05-12T22:50:14.844Z,77.97
2023-05-12T22:52:43.495Z,78.51
2023-05-12T22:55:11.807Z,80.23
2023-05-12T22:57:44.004Z,80.85
2023-05-12T23:00:13.139Z,81.50
2023-05-12T23:02:41.329Z,79.70
2023-05-12T23:05:10.590Z,78.92
2023-05-12T23:07:38.977Z,78.87
2023-05-12T23:10:09.380Z,78.52
2023-05-12T23:12:37.620Z,78.88
2023-05-12T23:15:10.084Z,79.67
2023-05-12T23:17:38.386Z,80.46
2023-05-12T23:20:08.070Z,81.05
2023-05-12T23:22:36.052Z,81.97
2023-05-12T23:25:04.344Z,81.94
2023-05-12T23:27:32.921Z,82.43
2023-05-12T23:30:01.435Z,82.74
2023-05-12T23:32:31.291Z,83.06
2023-05-12T23:34:59.590Z,83.08
2023-05-12T23:37:27.807Z,83.67
2023-05-12T23:39:55.996Z,84.34
2023-05-12T23:42:24.055Z,84.05
2023-05-12T23:44:52.546Z,84.82
2023-05-12T23:47:21.119Z,85.04
2023-05-12T23:49:50.971Z,84.83
2023-05-12T23:52:19.217Z,84.39
2023-05-12T23:54:47.643Z,84.55
2023-05-12T23:57:15.760Z,84.65
2023-05-12T23:59:43.722Z,84.33
